Time,TemperatureF,DewpointF,PressureIn,WindDirection,WindDirectionDegrees,WindSpeedMPH,WindSpeedGustMPH,Humidity,HourlyPrecipIn,Conditions,Clouds,dailyrainin,SoftwareType,DateUTC
2013-02-12 00:16:00,47.3,-48.6,30.21,WSW,247,0.0,-999.0,1,-99.99,,,0.00,Acu-Link.com,2013-02-12 08:16:00,
2013-02-12 00:31:00,46.9,-48.8,30.21,NE,45,0.0,-999.0,1,-99.99,,,0.00,Acu-Link.com,2013-02-12 08:31:00,
2013-02-12 00:46:00,46.8,-48.9,30.21,ENE,67,0.0,-999.0,1,-99.99,,,0.00,Acu-Link.com,2013-02-12 08:46:00,
2013-02-12 01:01:00,46.6,-49.0,30.22,ENE,67,0.0,-999.0,1,-99.99,,,0.00,Acu-Link.com,2013-02-12 09:01:00,
2013-02-12 01:19:00,46.6,-49.0,30.21,NNE,22,0.0,-999.0,1,-99.99,,,0.00,Acu-Link.com,2013-02-12 09:19:00,
2013-02-12 01:34:00,45.9,-49.5,30.22,NNE,22,0.0,-999.0,1,-99.99,,,0.00,Acu-Link.com,2013-02-12 09:34:00,
2013-02-12 01:49:00,45.7,-49.6,30.22,ENE,67,0.0,-999.0,1,-99.99,,,0.00,Acu-Link.com,2013-02-12 09:49:00,
2013-02-12 02:04:00,45.3,-49.8,30.22,NNE,22,0.0,-999.0,1,-99.99,,,0.00,Acu-Link.com,2013-02-12 10:04:00,
2013-02-12 06:04:00,44.8,-50.1,30.25,South,180,0.0,-999.0,1,-99.99,,,0.00,Acu-Link.com,2013-02-12 14:04:00,
2013-02-12 07:23:00,47.3,-48.6,30.28,NNE,22,0.0,-999.0,1,-99.99,,,0.00,Acu-Link.com,2013-02-12 15:23:00,
2013-02-12 07:38:00,48.9,-47.6,30.28,North,0,2.2,-999.0,1,-99.99,,,0.00,Acu-Link.com,2013-02-12 15:38:00,
2013-02-12 07:53:00,50.4,-46.7,30.29,NNE,22,2.2,-999.0,1,-99.99,,,0.00,Acu-Link.com,2013-02-12 15:53:00,
2013-02-12 08:10:00,52.5,-45.4,30.29,NNW,337,0.0,-999.0,1,-99.99,,,0.00,Acu-Link.com,2013-02-12 16:10:00,
2013-02-12 08:25:00,52.0,-45.7,30.29,NNW,337,1.7,-999.0,1,-99.99,,,0.00,Acu-Link.com,2013-02-12 16:25:00,
2013-02-12 08:41:00,52.0,-45.7,30.30,WSW,247,0.0,-999.0,1,-99.99,,,0.00,Acu-Link.com,2013-02-12 16:41:00,
2013-02-12 08:56:00,53.2,-45.0,30.30,WNW,292,2.2,-999.0,1,-99.99,,,0.00,Acu-Link.com,2013-02-12 16:56:00,
2013-02-12 09:12:00,55.9,-43.3,30.31,South,180,0.0,-999.0,1,-99.99,,,0.00,Acu-Link.com,2013-02-12 17:12:00,
2013-02-12 09:27:00,54.1,-44.4,30.31,ENE,67,2.2,-999.0,1,-99.99,,,0.00,Acu-Link.com,2013-02-12 17:27:00,
2013-02-12 09:43:00,54.5,-44.2,30.31,NNW,337,2.2,-999.0,1,-99.99,,,0.00,Acu-Link.com,2013-02-12 17:43:00,
2013-02-12 09:58:00,56.1,-43.2,30.31,NW,315,4.2,-999.0,1,-99.99,,,0.00,Acu-Link.com,2013-02-12 17:58:00,
2013-02-12 10:14:00,56.5,-43.0,30.31,WSW,247,2.7,-999.0,1,-99.99,,,0.00,Acu-Link.com,2013-02-12 18:14:00,
2013-02-12 10:31:00,56.3,-43.1,30.31,SSW,202,3.7,-999.0,1,-99.99,,,0.00,Acu-Link.com,2013-02-12 18:31:00,
2013-02-12 10:47:00,59.9,-40.9,30.30,SSW,202,1.1,-999.0,1,-99.99,,,0.00,Acu-Link.com,2013-02-12 18:47:00,
2013-02-12 11:03:00,57.7,-42.3,30.30,WNW,292,3.2,-999.0,1,-99.99,,,0.00,Acu-Link.com,2013-02-12 19:03:00,
2013-02-12 11:20:00,58.3,-41.9,30.29,North,0,3.2,-999.0,1,-99.99,,,0.00,Acu-Link.com,2013-02-12 19:20:00,
2013-02-12 11:35:00,62.4,61.5,30.28,ENE,67,2.7,-999.0,97,-99.99,,,0.00,Acu-Link.com,2013-02-12 19:35:00,
2013-02-12 11:50:00,61.5,38.8,30.27,NNE,22,3.7,-999.0,43,-99.99,,,0.00,Acu-Link.com,2013-02-12 19:50:00,
2013-02-12 12:07:00,60.8,60.2,30.26,North,0,6.8,-999.0,98,-99.99,,,0.00,Acu-Link.com,2013-02-12 20:07:00,
2013-02-12 12:22:00,62.1,61.5,30.25,NE,45,4.7,-999.0,98,-99.99,,,0.00,Acu-Link.com,2013-02-12 20:22:00,
2013-02-12 12:37:00,64.4,63.8,30.25,NNE,22,3.2,-999.0,98,-99.99,,,0.00,Acu-Link.com,2013-02-12 20:37:00,
2013-02-12 12:52:00,63.7,63.1,30.24,NNE,22,8.3,-999.0,98,-99.99,,,0.00,Acu-Link.com,2013-02-12 20:52:00,
2013-02-12 13:08:00,67.1,66.5,30.23,East,90,2.7,-999.0,98,-99.99,,,0.00,Acu-Link.com,2013-02-12 21:08:00,
2013-02-12 13:23:00,64.0,63.4,30.22,ENE,67,4.7,-999.0,98,-99.99,,,0.00,Acu-Link.com,2013-02-12 21:23:00,
2013-02-12 13:39:00,63.7,63.1,30.22,NNW,337,4.7,-999.0,98,-99.99,,,0.00,Acu-Link.com,2013-02-12 21:39:00,
2013-02-12 13:54:00,62.8,43.4,30.22,NE,45,6.8,-999.0,49,-99.99,,,0.00,Acu-Link.com,2013-02-12 21:54:00,
2013-02-12 14:10:00,62.8,-39.2,30.21,NNW,337,9.9,-999.0,1,-99.99,,,0.00,Acu-Link.com,2013-02-12 22:10:00,
2013-02-12 14:27:00,62.4,-39.4,30.21,NE,45,10.9,-999.0,1,-99.99,,,0.00,Acu-Link.com,2013-02-12 22:27:00,
2013-02-12 14:42:00,63.1,62.5,30.20,NE,45,5.8,-999.0,98,-99.99,,,0.00,Acu-Link.com,2013-02-12 22:42:00,
2013-02-12 14:59:00,62.8,62.2,30.20,NNE,22,5.8,-999.0,98,-99.99,,,0.00,Acu-Link.com,2013-02-12 22:59:00,
2013-02-12 15:14:00,61.5,60.9,30.20,NNW,337,4.7,-999.0,98,-99.99,,,0.00,Acu-Link.com,2013-02-12 23:14:00,
2013-02-12 15:29:00,63.0,62.4,30.20,North,0,7.8,-999.0,98,-99.99,,,0.00,Acu-Link.com,2013-02-12 23:29:00,
2013-02-12 15:44:00,63.0,62.4,30.20,North,0,4.2,-999.0,98,-99.99,,,0.00,Acu-Link.com,2013-02-12 23:44:00,
2013-02-12 15:59:00,62.8,49.1,30.20,West,270,4.7,-999.0,61,-99.99,,,0.00,Acu-Link.com,2013-02-12 23:59:00,
2013-02-12 16:15:00,63.1,62.5,30.20,NNW,337,4.7,-999.0,98,-99.99,,,0.00,Acu-Link.com,2013-02-13 00:15:00,
2013-02-12 16:30:00,61.2,60.6,30.20,NNW,337,7.3,-999.0,98,-99.99,,,0.00,Acu-Link.com,2013-02-13 00:30:00,
2013-02-12 16:46:00,61.9,61.3,30.20,NW,315,2.7,-999.0,98,-99.99,,,0.00,Acu-Link.com,2013-02-13 00:46:00,
2013-02-12 17:01:00,62.1,61.5,30.20,SW,225,3.7,-999.0,98,-99.99,,,0.00,Acu-Link.com,2013-02-13 01:01:00,
2013-02-12 17:16:00,60.8,60.2,30.20,SSE,157,1.7,-999.0,98,-99.99,,,0.00,Acu-Link.com,2013-02-13 01:16:00,
2013-02-12 17:32:00,59.2,58.6,30.20,SSW,202,2.2,-999.0,98,-99.99,,,0.00,Acu-Link.com,2013-02-13 01:32:00,
2013-02-12 17:47:00,57.7,57.1,30.21,SE,135,2.2,-999.0,98,-99.99,,,0.00,Acu-Link.com,2013-02-13 01:47:00,
2013-02-12 18:02:00,56.8,56.2,30.21,South,180,1.7,-999.0,98,-99.99,,,0.00,Acu-Link.com,2013-02-13 02:02:00,
2013-02-12 18:17:00,55.8,55.2,30.21,SE,135,0.0,-999.0,98,-99.99,,,0.00,Acu-Link.com,2013-02-13 02:17:00,
2013-02-12 18:32:00,55.4,54.8,30.21,South,180,0.0,-999.0,98,-99.99,,,0.00,Acu-Link.com,2013-02-13 02:32:00,
2013-02-12 18:48:00,55.0,54.4,30.22,NE,45,2.7,-999.0,98,-99.99,,,0.00,Acu-Link.com,2013-02-13 02:48:00,
2013-02-12 19:03:00,54.3,53.7,30.22,ENE,67,0.0,-999.0,98,-99.99,,,0.00,Acu-Link.com,2013-02-13 03:03:00,
2013-02-12 19:18:00,53.6,-44.7,30.22,SSE,157,1.1,-999.0,1,-99.99,,,0.00,Acu-Link.com,2013-02-13 03:18:00,
2013-02-12 19:33:00,53.2,-45.0,30.23,ESE,112,1.7,-999.0,1,-99.99,,,0.00,Acu-Link.com,2013-02-13 03:33:00,
2013-02-12 19:48:00,52.7,-45.3,30.23,East,90,0.0,-999.0,1,-99.99,,,0.00,Acu-Link.com,2013-02-13 03:48:00,
2013-02-12 20:03:00,52.3,-45.5,30.23,SSE,157,1.1,-999.0,1,-99.99,,,0.00,Acu-Link.com,2013-02-13 04:03:00,
2013-02-12 20:18:00,51.8,-45.8,30.24,South,180,0.0,-999.0,1,-99.99,,,0.00,Acu-Link.com,2013-02-13 04:18:00,
2013-02-12 20:33:00,51.6,-46.0,30.24,SE,135,0.0,-999.0,1,-99.99,,,0.00,Acu-Link.com,2013-02-13 04:33:00,
2013-02-12 20:48:00,51.3,-46.2,30.24,SSE,157,0.0,-999.0,1,-99.99,,,0.00,Acu-Link.com,2013-02-13 04:48:00,
2013-02-12 21:04:00,50.4,-46.7,30.24,ESE,112,0.0,-999.0,1,-99.99,,,0.00,Acu-Link.com,2013-02-13 05:04:00,
2013-02-12 21:19:00,49.6,-47.2,30.24,NE,45,0.0,-999.0,1,-99.99,,,0.00,Acu-Link.com,2013-02-13 05:19:00,
2013-02-12 21:34:00,49.1,-47.5,30.24,SW,225,0.0,-999.0,1,-99.99,,,0.00,Acu-Link.com,2013-02-13 05:34:00,
2013-02-12 21:49:00,48.4,-47.9,30.24,SW,225,0.0,-999.0,1,-99.99,,,0.00,Acu-Link.com,2013-02-13 05:49:00,
2013-02-12 22:04:00,48.2,-48.1,30.24,SW,225,0.0,-999.0,1,-99.99,,,0.00,Acu-Link.com,2013-02-13 06:04:00,
2013-02-12 22:19:00,48.4,-47.9,30.23,NW,315,0.0,-999.0,1,-99.99,,,0.00,Acu-Link.com,2013-02-13 06:19:00,
2013-02-12 22:35:00,48.0,-48.2,30.23,ENE,67,0.0,-999.0,1,-99.99,,,0.00,Acu-Link.com,2013-02-13 06:35:00,
2013-02-12 22:50:00,47.5,-48.5,30.23,East,90,0.0,-999.0,1,-99.99,,,0.00,Acu-Link.com,2013-02-13 06:50:00,
2013-02-12 23:05:00,47.1,-48.7,30.23,South,180,0.0,-999.0,1,-99.99,,,0.00,Acu-Link.com,2013-02-13 07:05:00,
2013-02-12 23:20:00,47.7,-48.4,30.23,NNE,22,0.0,-999.0,1,-99.99,,,0.00,Acu-Link.com,2013-02-13 07:20:00,
2013-02-12 23:35:00,48.9,-47.6,30.23,SSW,202,0.0,-999.0,1,-99.99,,,0.00,Acu-Link.com,2013-02-13 07:35:00,